Time;durP1;ratioP1;P1;durP2;ratioP2;P2;SDS_P1;SDS_P2;PMS_P1;PMS_P2;Temp;Humidity;BMP_temperature;BMP_pressure;BME280_temperature;BME280_humidity;BME280_pressure;Samples;Min_cycle;Max_cycle;Signal;HPM_P1;HPM_P2
2023/12/06 00:01:24;;;;;;;69.95;45.95;;;4.10;99.90;;;;;;5016115;28;20115;-76
2023/12/06 00:03:50;;;;;;;63.05;44.60;;;4.10;99.90;;;;;;5016918;28;20075;-75
2023/12/06 00:06:15;;;;;;;67.22;46.00;;;5.10;99.90;;;;;;5001690;28;20123;-78
2023/12/06 00:08:41;;;;;;;68.97;45.20;;;4.10;99.90;;;;;;4996204;28;20057;-78
2023/12/06 00:11:07;;;;;;;67.57;46.35;;;3.40;99.90;;;;;;5020225;28;20040;-77
2023/12/06 00:13:32;;;;;;;67.40;45.72;;;4.40;99.90;;;;;;5039824;28;20052;-80
2023/12/06 00:15:58;;;;;;;67.70;45.03;;;4.40;99.90;;;;;;5024092;28;20045;-76
2023/12/06 00:18:24;;;;;;;69.40;45.70;;;3.70;99.90;;;;;;5027107;28;20042;-77
2023/12/06 00:20:49;;;;;;;67.07;44.83;;;3.50;99.90;;;;;;5001298;28;20643;-76
2023/12/06 00:23:15;;;;;;;87.35;47.45;;;4.10;99.90;;;;;;5023082;28;20044;-76
2023/12/06 00:25:41;;;;;;;65.65;44.65;;;4.40;99.90;;;;;;5028355;28;20096;-77
2023/12/06 00:28:06;;;;;;;65.97;45.90;;;4.20;99.90;;;;;;5008453;28;20060;-79
2023/12/06 00:30:32;;;;;;;68.38;46.17;;;3.40;99.90;;;;;;4998234;28;20053;-78
2023/12/06 00:32:58;;;;;;;65.13;44.05;;;4.40;99.90;;;;;;5035201;28;20044;-79
2023/12/06 00:35:23;;;;;;;63.95;45.13;;;5.00;99.90;;;;;;4993605;28;20049;-76
2023/12/06 00:37:49;;;;;;;66.10;44.88;;;4.30;99.90;;;;;;5021184;28;20030;-74
2023/12/06 00:40:15;;;;;;;66.97;46.33;;;4.20;99.90;;;;;;5013456;28;20639;-76
2023/12/06 00:42:41;;;;;;;69.30;45.65;;;4.20;99.90;;;;;;5022885;28;20047;-76
2023/12/06 00:45:07;;;;;;;71.53;46.65;;;3.90;99.90;;;;;;5017292;28;20045;-76
2023/12/06 00:47:32;;;;;;;67.10;44.97;;;4.00;99.90;;;;;;5010164;28;20080;-74
2023/12/06 00:49:58;;;;;;;65.35;45.38;;;3.50;99.90;;;;;;5004942;28;20075;-77
2023/12/06 00:52:24;;;;;;;69.60;46.38;;;3.50;99.90;;;;;;5006502;28;20059;-78
2023/12/06 00:54:49;;;;;;;66.07;46.35;;;4.30;99.90;;;;;;5021385;28;20130;-75
2023/12/06 00:57:15;;;;;;;66.32;45.15;;;3.80;99.90;;;;;;5021346;28;20432;-76
2023/12/06 00:59:41;;;;;;;65.55;45.75;;;3.50;99.90;;;;;;5008138;28;20037;-77
2023/12/06 01:02:06;;;;;;;69.22;46.08;;;3.80;99.90;;;;;;5024960;28;20034;-78
2023/12/06 01:04:36;;;;;;;69.53;45.92;;;3.60;99.90;;;;;;5028232;28;20502;-76
2023/12/06 01:07:02;;;;;;;66.32;45.30;;;4.00;99.90;;;;;;5009321;28;20053;-78
2023/12/06 01:09:28;;;;;;;75.53;47.28;;;4.20;99.90;;;;;;5015201;28;20080;-76
2023/12/06 01:11:54;;;;;;;70.45;47.78;;;4.50;99.90;;;;;;5007777;28;20103;-77
2023/12/06 01:14:19;;;;;;;67.97;47.83;;;3.70;99.90;;;;;;5035845;28;20048;-79
2023/12/06 01:16:45;;;;;;;66.63;45.65;;;3.70;99.90;;;;;;5002990;28;20073;-77
2023/12/06 01:19:13;;;;;;;75.13;49.33;;;4.10;99.90;;;;;;5000962;28;20049;-77
2023/12/06 01:21:39;;;;;;;72.22;47.95;;;4.50;99.90;;;;;;5007972;28;20032;-76
2023/12/06 01:24:05;;;;;;;69.78;47.63;;;4.20;99.90;;;;;;5031929;28;20454;-75
2023/12/06 01:26:30;;;;;;;68.45;46.65;;;3.60;99.90;;;;;;4995619;28;20428;-77
2023/12/06 01:28:56;;;;;;;77.00;50.22;;;3.60;99.90;;;;;;5000993;28;20083;-77
2023/12/06 01:31:22;;;;;;;76.32;49.58;;;4.20;99.90;;;;;;5006046;28;20049;-75
2023/12/06 01:33:47;;;;;;;76.55;48.03;;;5.10;99.90;;;;;;4996957;28;20037;-76
2023/12/06 01:36:13;;;;;;;77.75;49.30;;;4.40;99.90;;;;;;5021469;28;20050;-78
2023/12/06 01:38:39;;;;;;;86.60;51.55;;;3.90;99.90;;;;;;5008031;28;20092;-77
2023/12/06 01:41:04;;;;;;;86.43;51.83;;;4.50;99.90;;;;;;5004930;28;20481;-76
2023/12/06 01:43:30;;;;;;;79.30;48.88;;;3.50;99.90;;;;;;5012756;28;20068;-76
2023/12/06 01:45:56;;;;;;;84.15;50.90;;;3.90;99.90;;;;;;5020637;28;20147;-74
2023/12/06 01:48:22;;;;;;;87.00;50.58;;;4.40;99.90;;;;;;5028088;28;20052;-75
2023/12/06 01:50:49;;;;;;;78.05;50.42;;;3.50;99.90;;;;;;5016585;28;20505;-78
2023/12/06 01:53:15;;;;;;;80.22;48.50;;;3.70;99.90;;;;;;5012132;28;20477;-76
2023/12/06 01:55:41;;;;;;;82.50;49.83;;;4.60;99.90;;;;;;5030059;28;20044;-77
2023/12/06 01:58:07;;;;;;;91.68;51.97;;;4.20;99.90;;;;;;5026573;28;20388;-78
2023/12/06 02:00:33;;;;;;;94.53;52.60;;;4.60;99.90;;;;;;5039159;28;20036;-76
2023/12/06 02:02:59;;;;;;;85.45;51.17;;;4.60;99.90;;;;;;5027496;28;20047;-75
2023/12/06 02:05:25;;;;;;;88.30;51.63;;;3.70;99.90;;;;;;4997280;28;20041;-77
2023/12/06 02:07:51;;;;;;;92.50;52.85;;;4.60;99.90;;;;;;5000399;28;20573;-76
2023/12/06 02:10:17;;;;;;;85.95;49.95;;;3.80;99.90;;;;;;5009904;28;20191;-75
2023/12/06 02:12:43;;;;;;;83.78;51.35;;;3.80;99.90;;;;;;5025039;28;20489;-75
2023/12/06 02:15:09;;;;;;;89.53;50.75;;;4.50;99.90;;;;;;4994950;28;20083;-76
2023/12/06 02:17:35;;;;;;;78.95;49.05;;;4.40;99.90;;;;;;4998059;28;20072;-75
2023/12/06 02:20:02;;;;;;;81.07;49.80;;;4.50;99.90;;;;;;5036464;28;20041;-75
2023/12/06 02:22:28;;;;;;;75.45;48.22;;;3.70;99.90;;;;;;4989928;28;20570;-78
2023/12/06 02:24:57;;;;;;;74.60;45.83;;;4.20;99.90;;;;;;5016829;28;20053;-78
2023/12/06 02:27:23;;;;;;;71.93;46.03;;;3.70;99.90;;;;;;5034186;28;20131;-75
2023/12/06 02:29:50;;;;;;;58.90;40.88;;;4.50;99.90;;;;;;5021751;28;20128;-78
2023/12/06 02:32:15;;;;;;;66.63;43.05;;;4.50;99.90;;;;;;5031685;28;20140;-76
2023/12/06 02:34:42;;;;;;;59.55;40.85;;;4.10;99.90;;;;;;5014143;28;20129;-77
2023/12/06 02:37:11;;;;;;;57.90;39.17;;;3.80;99.90;;;;;;5024148;28;20041;-74
2023/12/06 02:39:40;;;;;;;52.72;38.15;;;4.10;99.90;;;;;;5013352;28;20057;-75
2023/12/06 02:42:06;;;;;;;55.78;38.17;;;5.70;99.90;;;;;;5011813;28;20041;-78
2023/12/06 02:44:32;;;;;;;50.28;36.22;;;3.90;99.90;;;;;;4977930;28;20053;-76
2023/12/06 02:46:58;;;;;;;49.08;34.58;;;5.20;99.90;;;;;;4985336;28;20087;-76
2023/12/06 02:49:23;;;;;;;44.65;33.42;;;4.60;99.90;;;;;;4991659;28;20059;-75
2023/12/06 02:51:49;;;;;;;45.47;32.65;;;4.80;99.90;;;;;;4996663;28;20041;-74
2023/12/06 02:54:15;;;;;;;43.50;32.05;;;4.10;99.90;;;;;;4994690;28;20045;-76
2023/12/06 02:56:40;;;;;;;40.33;29.85;;;4.60;99.90;;;;;;4998802;28;20040;-76
2023/12/06 02:59:06;;;;;;;40.45;31.55;;;3.70;99.90;;;;;;5004390;28;20029;-79
2023/12/06 03:01:32;;;;;;;35.55;29.10;;;4.30;99.90;;;;;;4993831;28;20049;-76
2023/12/06 03:03:57;;;;;;;34.38;27.80;;;4.70;99.90;;;;;;5028860;28;20052;-76
2023/12/06 03:06:23;;;;;;;34.47;28.08;;;4.00;99.90;;;;;;4996330;28;20127;-77
2023/12/06 03:08:49;;;;;;;35.00;27.60;;;3.70;99.90;;;;;;5010784;28;20107;-78
2023/12/06 03:11:14;;;;;;;29.77;25.23;;;4.90;99.90;;;;;;5021369;28;20049;-79
2023/12/06 03:13:40;;;;;;;33.03;26.83;;;3.80;99.90;;;;;;5008227;28;20187;-78
2023/12/06 03:16:06;;;;;;;32.75;26.17;;;4.70;99.90;;;;;;5017836;28;20195;-77
2023/12/06 03:18:34;;;;;;;32.38;26.38;;;4.70;99.90;;;;;;5011418;28;20045;-76
2023/12/06 03:21:00;;;;;;;33.70;27.48;;;3.80;99.90;;;;;;5032498;28;20091;-79
2023/12/06 03:23:25;;;;;;;41.95;26.73;;;5.50;99.90;;;;;;5000610;28;20481;-79
2023/12/06 03:25:51;;;;;;;30.60;26.25;;;3.90;99.90;;;;;;5017526;28;20129;-76
2023/12/06 03:28:17;;;;;;;34.42;25.83;;;3.90;99.90;;;;;;5027320;28;20046;-76
2023/12/06 03:30:43;;;;;;;29.48;24.85;;;4.00;99.90;;;;;;5017251;28;20045;-75
2023/12/06 03:33:09;;;;;;;31.73;26.02;;;4.70;99.90;;;;;;5033272;28;20048;-79
2023/12/06 03:35:34;;;;;;;32.03;25.58;;;4.10;99.90;;;;;;5014189;28;20125;-79
2023/12/06 03:38:00;;;;;;;32.45;26.13;;;4.00;99.90;;;;;;5019216;28;20446;-77
2023/12/06 03:40:26;;;;;;;33.17;25.85;;;3.70;99.90;;;;;;5027093;28;20481;-75
2023/12/06 03:42:52;;;;;;;35.55;26.63;;;3.70;99.90;;;;;;5005868;28;20044;-76
2023/12/06 03:45:17;;;;;;;31.70;26.38;;;4.50;99.90;;;;;;5040138;28;20052;-79
2023/12/06 03:47:43;;;;;;;31.15;25.98;;;3.80;99.90;;;;;;5005468;28;20045;-77
2023/12/06 03:50:09;;;;;;;30.63;25.38;;;4.80;99.90;;;;;;5028000;28;20123;-76
2023/12/06 03:52:34;;;;;;;35.38;26.60;;;4.80;99.90;;;;;;5033043;28;20350;-76
2023/12/06 03:55:06;;;;;;;35.05;26.58;;;3.90;99.90;;;;;;5021442;28;20042;-79
2023/12/06 03:57:32;;;;;;;32.45;26.25;;;3.80;99.90;;;;;;4984582;28;20052;-77
2023/12/06 03:59:58;;;;;;;28.30;24.95;;;4.40;99.90;;;;;;5019895;28;20044;-74
2023/12/06 04:02:24;;;;;;;31.88;25.60;;;3.90;99.90;;;;;;5010959;28;20072;-77
2023/12/06 04:04:49;;;;;;;30.90;25.88;;;4.80;99.90;;;;;;5022755;28;20045;-76
2023/12/06 04:07:16;;;;;;;31.73;26.08;;;4.10;99.90;;;;;;5007161;28;20132;-76
2023/12/06 04:09:41;;;;;;;27.95;24.80;;;4.90;99.90;;;;;;5039128;28;20037;-76
2023/12/06 04:12:08;;;;;;;30.17;25.67;;;3.80;99.90;;;;;;5016220;28;20384;-75
2023/12/06 04:14:33;;;;;;;31.65;24.38;;;4.60;99.90;;;;;;5014401;28;20493;-77
2023/12/06 04:16:59;;;;;;;32.80;24.30;;;5.10;99.90;;;;;;4982371;28;20065;-77
2023/12/06 04:19:24;;;;;;;30.27;23.45;;;5.30;99.90;;;;;;5023110;28;20048;-77
2023/12/06 04:21:51;;;;;;;26.27;22.80;;;4.30;99.90;;;;;;4997959;28;20044;-78
2023/12/06 04:24:16;;;;;;;27.13;22.55;;;4.90;99.90;;;;;;5013974;28;20445;-77
2023/12/06 04:26:42;;;;;;;29.25;25.67;;;4.20;99.90;;;;;;5025907;28;20079;-79
2023/12/06 04:29:07;;;;;;;29.70;24.90;;;5.10;99.90;;;;;;5005691;28;20052;-76
2023/12/06 04:31:33;;;;;;;32.20;25.30;;;3.80;99.90;;;;;;5004919;28;20084;-78
2023/12/06 04:33:59;;;;;;;30.15;24.50;;;4.40;99.90;;;;;;5019186;28;20049;-76
2023/12/06 04:36:24;;;;;;;33.40;25.15;;;4.30;99.90;;;;;;5029997;28;20041;-77
2023/12/06 04:38:51;;;;;;;31.50;25.23;;;5.00;99.90;;;;;;5002912;28;20477;-75
2023/12/06 04:41:17;;;;;;;30.85;25.38;;;3.90;99.90;;;;;;5025203;28;20116;-80
2023/12/06 04:43:42;;;;;;;32.78;26.33;;;5.10;99.90;;;;;;5017233;28;20124;-76
2023/12/06 04:46:11;;;;;;;31.15;26.40;;;4.60;99.90;;;;;;5026658;28;20115;-76
2023/12/06 04:48:37;;;;;;;33.78;26.52;;;4.10;99.90;;;;;;5029049;28;20054;-76
2023/12/06 04:51:03;;;;;;;50.75;26.20;;;4.00;99.90;;;;;;5022930;28;20037;-78
2023/12/06 04:53:28;;;;;;;29.00;24.75;;;5.00;99.90;;;;;;5014750;28;20401;-74
2023/12/06 04:55:54;;;;;;;29.80;24.85;;;5.30;99.90;;;;;;5022203;28;20037;-76
2023/12/06 04:58:19;;;;;;;30.10;24.88;;;4.60;99.90;;;;;;5000269;28;20099;-75
2023/12/06 05:00:45;;;;;;;30.23;23.77;;;4.10;99.90;;;;;;5017688;28;20397;-77
2023/12/06 05:03:11;;;;;;;31.02;24.90;;;5.10;99.90;;;;;;5003506;28;20112;-76
2023/12/06 05:05:37;;;;;;;31.77;26.50;;;5.10;99.90;;;;;;4999309;28;20310;-78
2023/12/06 05:08:03;;;;;;;34.45;25.08;;;4.40;99.90;;;;;;5016520;28;20061;-78
2023/12/06 05:10:28;;;;;;;33.78;26.25;;;4.30;99.90;;;;;;5014094;28;20745;-76
2023/12/06 05:12:54;;;;;;;33.50;26.48;;;5.40;99.90;;;;;;5005070;28;20143;-76
2023/12/06 05:15:20;;;;;;;34.65;26.23;;;4.10;99.90;;;;;;5005009;28;20116;-77
2023/12/06 05:17:45;;;;;;;32.00;25.38;;;4.90;99.90;;;;;;5032247;28;20041;-76
2023/12/06 05:20:11;;;;;;;32.17;26.00;;;5.20;99.90;;;;;;5011965;28;20046;-76
2023/12/06 05:22:37;;;;;;;32.53;26.45;;;4.20;99.90;;;;;;5019802;28;20033;-79
2023/12/06 05:25:06;;;;;;;32.50;25.73;;;5.10;99.90;;;;;;5030568;28;20060;-75
2023/12/06 05:27:33;;;;;;;37.40;27.98;;;4.50;99.90;;;;;;5033611;28;20075;-76
2023/12/06 05:29:58;;;;;;;37.25;26.40;;;4.30;99.90;;;;;;4997920;28;20045;-76
2023/12/06 05:32:24;;;;;;;36.83;27.25;;;4.20;99.90;;;;;;5015034;28;20041;-76
2023/12/06 05:34:50;;;;;;;34.72;26.50;;;4.40;99.90;;;;;;5014689;28;20041;-76
2023/12/06 05:37:15;;;;;;;35.10;27.23;;;4.00;99.90;;;;;;5008513;28;20390;-74
2023/12/06 05:39:41;;;;;;;31.63;25.15;;;4.00;99.90;;;;;;5013564;28;20133;-76
2023/12/06 05:42:07;;;;;;;34.38;26.08;;;5.20;99.90;;;;;;5025917;28;20036;-77
2023/12/06 05:44:33;;;;;;;34.75;25.50;;;4.10;99.90;;;;;;4995656;28;20472;-76
2023/12/06 05:46:59;;;;;;;29.30;24.70;;;5.00;99.90;;;;;;5020361;28;20099;-76
2023/12/06 05:49:25;;;;;;;31.13;24.65;;;3.90;99.90;;;;;;5026499;28;20057;-79
2023/12/06 05:51:51;;;;;;;31.10;26.08;;;5.10;99.90;;;;;;5039764;28;20477;-80
2023/12/06 05:54:17;;;;;;;33.03;25.55;;;5.20;99.90;;;;;;5003452;28;20712;-76
2023/12/06 05:56:43;;;;;;;34.53;25.83;;;5.10;99.90;;;;;;5030008;28;20903;-76
2023/12/06 05:59:08;;;;;;;31.80;24.60;;;5.50;99.90;;;;;;5004567;28;20051;-78
2023/12/06 06:01:34;;;;;;;32.47;25.70;;;4.10;99.90;;;;;;5030562;28;20069;-79
2023/12/06 06:04:00;;;;;;;36.28;27.05;;;5.10;99.90;;;;;;5009044;28;20124;-75
2023/12/06 06:06:26;;;;;;;37.53;28.40;;;4.90;99.90;;;;;;5020184;28;20386;-77
2023/12/06 06:08:58;;;;;;;35.30;27.25;;;4.50;99.90;;;;;;4994030;28;20091;-76
2023/12/06 06:11:23;;;;;;;32.20;26.88;;;4.10;99.90;;;;;;5002699;28;20469;-77
2023/12/06 06:13:49;;;;;;;36.15;27.65;;;4.40;99.90;;;;;;5015417;28;20044;-78
2023/12/06 06:16:16;;;;;;;34.17;26.33;;;4.30;99.90;;;;;;5005015;28;20056;-77
2023/12/06 06:18:42;;;;;;;37.53;27.48;;;4.30;99.90;;;;;;5026880;28;20041;-76
2023/12/06 06:21:08;;;;;;;34.85;27.80;;;4.90;99.90;;;;;;5026614;28;20040;-79
2023/12/06 06:23:33;;;;;;;36.58;27.45;;;4.80;99.90;;;;;;5023634;28;20438;-75
2023/12/06 06:25:59;;;;;;;33.70;26.92;;;4.30;99.90;;;;;;5024750;28;20048;-76
2023/12/06 06:28:25;;;;;;;36.72;27.92;;;4.20;99.90;;;;;;5009010;28;20076;-76
2023/12/06 06:30:51;;;;;;;33.30;27.23;;;5.30;99.90;;;;;;5031502;28;20084;-81
2023/12/06 06:33:17;;;;;;;33.05;27.02;;;5.20;99.90;;;;;;5019291;28;20048;-77
2023/12/06 06:35:43;;;;;;;33.78;26.13;;;5.40;99.90;;;;;;5029703;28;20036;-80
2023/12/06 06:38:09;;;;;;;33.45;26.35;;;4.30;99.90;;;;;;5023860;28;20044;-76
2023/12/06 06:40:35;;;;;;;30.23;24.58;;;6.00;99.90;;;;;;5037208;28;20095;-77
2023/12/06 06:43:01;;;;;;;30.15;26.08;;;4.90;99.90;;;;;;5027577;28;20604;-81
2023/12/06 06:45:26;;;;;;;27.40;24.40;;;4.30;99.90;;;;;;5026216;28;20085;-76
2023/12/06 06:47:52;;;;;;;31.80;25.65;;;4.40;99.90;;;;;;5012264;28;20053;-79
2023/12/06 06:50:18;;;;;;;31.35;24.85;;;5.40;99.90;;;;;;5005887;28;20053;-78
2023/12/06 06:52:43;;;;;;;29.02;24.63;;;4.40;99.90;;;;;;5013348;28;20041;-76
2023/12/06 06:55:09;;;;;;;28.60;24.40;;;5.50;99.90;;;;;;5019734;28;20110;-76
2023/12/06 06:57:35;;;;;;;32.20;24.40;;;6.20;99.90;;;;;;5027009;28;20037;-80
2023/12/06 07:00:01;;;;;;;28.25;24.17;;;5.30;99.90;;;;;;5015648;28;20037;-77
2023/12/06 07:02:27;;;;;;;31.27;24.50;;;4.50;99.90;;;;;;5013226;28;20086;-78
2023/12/06 07:04:53;;;;;;;29.02;24.40;;;4.50;99.90;;;;;;5001567;28;20401;-80
2023/12/06 07:07:19;;;;;;;29.42;23.55;;;5.40;99.90;;;;;;5020742;28;20115;-78
2023/12/06 07:09:45;;;;;;;28.92;21.88;;;5.00;99.90;;;;;;5005211;28;20042;-81
2023/12/06 07:12:11;;;;;;;27.75;22.58;;;5.10;99.90;;;;;;4991359;28;20041;-80
2023/12/06 07:14:37;;;;;;;25.63;21.77;;;5.20;99.90;;;;;;4992694;28;20041;-79
2023/12/06 07:17:03;;;;;;;27.27;21.83;;;5.50;99.90;;;;;;4996725;28;20032;-79
2023/12/06 07:19:30;;;;;;;25.05;22.05;;;4.30;99.90;;;;;;4999965;28;20041;-79
2023/12/06 07:21:56;;;;;;;27.40;22.85;;;5.50;99.90;;;;;;5005156;28;20044;-80
2023/12/06 07:24:21;;;;;;;27.45;23.17;;;4.30;99.90;;;;;;5018907;28;20046;-79
2023/12/06 07:26:47;;;;;;;28.10;22.95;;;4.40;99.90;;;;;;5022792;28;20045;-78
2023/12/06 07:29:13;;;;;;;27.33;22.70;;;4.70;99.90;;;;;;5017808;28;21907;-80
2023/12/06 07:31:39;;;;;;;25.60;22.15;;;5.60;99.90;;;;;;5002260;28;20037;-79
2023/12/06 07:34:05;;;;;;;24.35;21.75;;;5.60;99.90;;;;;;4996576;28;20048;-78
2023/12/06 07:36:31;;;;;;;27.58;22.58;;;5.40;99.90;;;;;;5011493;28;20041;-79
2023/12/06 07:38:57;;;;;;;25.67;22.40;;;6.10;99.90;;;;;;5011700;28;20136;-77
2023/12/06 07:41:23;;;;;;;24.67;21.90;;;5.50;99.90;;;;;;5023072;28;20040;-81
2023/12/06 07:43:49;;;;;;;24.58;20.65;;;4.50;99.90;;;;;;5006342;28;20037;-78
2023/12/06 07:46:15;;;;;;;27.67;22.35;;;4.60;99.90;;;;;;5007206;28;20064;-78
2023/12/06 07:48:41;;;;;;;25.17;22.48;;;4.40;99.90;;;;;;4994794;28;20049;-79
2023/12/06 07:51:07;;;;;;;23.35;20.85;;;5.60;99.90;;;;;;5023921;28;20056;-81
2023/12/06 07:53:32;;;;;;;21.63;19.27;;;5.40;99.90;;;;;;4997410;28;20045;-79
2023/12/06 07:55:58;;;;;;;23.73;21.00;;;4.30;99.90;;;;;;5008667;28;20037;-81
2023/12/06 07:58:30;;;;;;;24.13;21.05;;;4.50;99.90;;;;;;5020621;28;20053;-80
2023/12/06 08:00:57;;;;;;;24.13;21.15;;;5.50;99.90;;;;;;4998974;28;20037;-79
2023/12/06 08:03:26;;;;;;;23.15;20.63;;;5.30;99.90;;;;;;5016709;28;20087;-79
2023/12/06 08:05:52;;;;;;;23.52;21.02;;;4.50;99.90;;;;;;4998005;28;20041;-82
2023/12/06 08:08:18;;;;;;;24.83;21.60;;;5.30;99.90;;;;;;5013847;28;20611;-80
2023/12/06 08:10:45;;;;;;;23.50;21.10;;;5.50;99.90;;;;;;5001386;28;20115;-81
2023/12/06 08:13:11;;;;;;;26.42;22.45;;;5.60;99.90;;;;;;5000424;28;20108;-79
2023/12/06 08:15:37;;;;;;;23.13;20.52;;;5.60;99.90;;;;;;5017274;28;20450;-81
2023/12/06 08:18:03;;;;;;;23.85;21.30;;;5.30;99.90;;;;;;4979153;28;20033;-81
2023/12/06 08:20:28;;;;;;;26.45;21.05;;;5.10;99.90;;;;;;5005258;28;20041;-81
2023/12/06 08:22:54;;;;;;;23.88;21.30;;;5.40;99.90;;;;;;5035866;28;20045;-79
2023/12/06 08:25:21;;;;;;;24.38;21.52;;;4.80;99.90;;;;;;5009412;28;20368;-81
2023/12/06 08:27:47;;;;;;;24.65;22.02;;;5.20;99.90;;;;;;5019477;28;20045;-80
2023/12/06 08:30:13;;;;;;;24.65;22.13;;;4.60;99.90;;;;;;5026990;28;20052;-79
2023/12/06 08:32:38;;;;;;;26.55;23.75;;;4.60;99.90;;;;;;5010740;28;20408;-79
2023/12/06 08:35:04;;;;;;;25.52;22.77;;;5.30;99.90;;;;;;5014713;28;20045;-79
2023/12/06 08:37:30;;;;;;;26.75;23.85;;;4.70;99.90;;;;;;5009806;28;20069;-79
2023/12/06 08:39:56;;;;;;;27.10;23.52;;;5.20;99.90;;;;;;5021867;28;20076;-79
2023/12/06 08:42:21;;;;;;;25.77;23.05;;;4.70;99.90;;;;;;5000425;28;20081;-77
2023/12/06 08:44:47;;;;;;;27.05;24.15;;;5.10;99.90;;;;;;5007643;28;20078;-78
2023/12/06 08:47:13;;;;;;;26.83;23.08;;;5.10;99.90;;;;;;5004639;28;20046;-81
2023/12/06 08:49:39;;;;;;;26.67;23.98;;;5.70;99.90;;;;;;4999091;28;20064;-78
2023/12/06 08:52:06;;;;;;;24.67;22.10;;;4.80;99.90;;;;;;5013663;28;20076;-79
2023/12/06 08:54:35;;;;;;;25.73;22.88;;;5.40;99.90;;;;;;5016231;28;20042;-81
2023/12/06 08:57:01;;;;;;;25.15;22.55;;;5.70;99.90;;;;;;5005479;28;20688;-80
2023/12/06 08:59:27;;;;;;;25.40;22.70;;;6.10;99.90;;;;;;5003184;28;20137;-79
2023/12/06 09:01:53;;;;;;;25.05;22.35;;;4.90;99.90;;;;;;5000548;28;20116;-78
2023/12/06 09:04:19;;;;;;;23.35;20.85;;;5.80;99.90;;;;;;5005748;28;20091;-79
2023/12/06 09:06:45;;;;;;;22.75;20.23;;;5.00;99.90;;;;;;5023893;28;20064;-78
2023/12/06 09:09:11;;;;;;;23.35;19.58;;;5.10;99.90;;;;;;5027237;28;20037;-81
2023/12/06 09:11:37;;;;;;;24.88;19.27;;;4.80;99.90;;;;;;5026904;28;20057;-77
2023/12/06 09:14:03;;;;;;;22.85;20.50;;;6.00;99.90;;;;;;5007016;28;20091;-78
2023/12/06 09:16:29;;;;;;;25.70;19.85;;;5.00;99.90;;;;;;4998056;28;20087;-79
2023/12/06 09:18:55;;;;;;;22.17;19.90;;;5.50;99.90;;;;;;4994362;28;20044;-77
2023/12/06 09:21:25;;;;;;;20.88;18.70;;;6.50;99.90;;;;;;5005936;28;20041;-81
2023/12/06 09:23:51;;;;;;;20.55;18.35;;;5.80;99.90;;;;;;5027611;28;20048;-79
2023/12/06 09:26:17;;;;;;;21.33;19.20;;;5.00;99.90;;;;;;5012811;28;20055;-79
2023/12/06 09:28:44;;;;;;;20.13;18.02;;;5.10;99.90;;;;;;5015281;28;20432;-81
2023/12/06 09:31:09;;;;;;;21.83;19.50;;;5.60;99.90;;;;;;4992423;28;20033;-77
2023/12/06 09:33:35;;;;;;;22.70;20.38;;;5.80;99.90;;;;;;5042722;28;20377;-77
2023/12/06 09:36:01;;;;;;;23.80;20.27;;;5.80;99.90;;;;;;5004198;28;20363;-78
2023/12/06 09:38:26;;;;;;;23.63;20.52;;;5.70;99.90;;;;;;5000069;28;20041;-79
2023/12/06 09:40:52;;;;;;;22.67;20.27;;;4.90;99.90;;;;;;5019085;28;20041;-79
2023/12/06 09:43:18;;;;;;;22.23;19.88;;;5.50;99.90;;;;;;5022118;28;20036;-78
2023/12/06 09:45:45;;;;;;;22.27;19.98;;;5.90;99.90;;;;;;5007289;28;20158;-81
2023/12/06 09:48:11;;;;;;;22.75;20.35;;;6.00;99.90;;;;;;4983935;28;20048;-78
2023/12/06 09:50:37;;;;;;;23.75;21.15;;;6.00;99.90;;;;;;5016413;28;20470;-81
2023/12/06 09:53:02;;;;;;;23.55;21.00;;;4.90;99.90;;;;;;5013586;28;20044;-82
2023/12/06 09:55:35;;;;;;;27.75;22.92;;;5.90;99.90;;;;;;5004975;28;20049;-77
2023/12/06 09:58:01;;;;;;;26.73;22.88;;;4.80;99.90;;;;;;5029453;28;20041;-79
2023/12/06 10:00:27;;;;;;;25.88;21.95;;;4.90;99.90;;;;;;5010869;28;20048;-76
2023/12/06 10:02:54;;;;;;;26.08;22.85;;;4.90;99.90;;;;;;5024812;28;20029;-79
2023/12/06 10:05:21;;;;;;;27.45;23.70;;;5.70;99.90;;;;;;5015067;28;20045;-78
2023/12/06 10:07:47;;;;;;;24.67;22.15;;;5.00;99.90;;;;;;5030672;28;20037;-79
2023/12/06 10:10:15;;;;;;;23.67;21.15;;;5.90;99.90;;;;;;5032260;28;20052;-80
2023/12/06 10:12:59;;;;;;;23.85;20.77;;;6.10;99.90;;;;;;4998958;28;20405;-81
2023/12/06 10:15:35;;;;;;;23.13;20.65;;;5.00;99.90;;;;;;5030632;28;20041;-80
2023/12/06 10:18:00;;;;;;;22.35;19.88;;;5.00;99.90;;;;;;5029705;28;20072;-78
2023/12/06 10:20:27;;;;;;;24.40;21.50;;;6.30;99.90;;;;;;5026975;28;20072;-79
2023/12/06 10:22:53;;;;;;;23.10;20.60;;;6.20;99.90;;;;;;5014881;28;20100;-80
2023/12/06 10:25:18;;;;;;;21.23;19.13;;;6.10;99.90;;;;;;5001885;28;20037;-83
2023/12/06 10:27:45;;;;;;;24.90;19.92;;;5.00;99.90;;;;;;5002952;28;20048;-80
2023/12/06 10:30:11;;;;;;;22.75;19.95;;;6.10;99.90;;;;;;5024769;28;20078;-78
2023/12/06 10:32:37;;;;;;;23.05;20.63;;;5.40;99.90;;;;;;5000473;28;20041;-77
2023/12/06 10:35:06;;;;;;;22.15;19.77;;;5.10;99.90;;;;;;5010198;28;20041;-82
2023/12/06 10:37:33;;;;;;;23.90;20.85;;;5.00;99.90;;;;;;5003669;28;20734;-78
2023/12/06 10:40:09;;;;;;;24.50;21.90;;;6.20;99.90;;;;;;5016889;28;20036;-81
2023/12/06 10:42:36;;;;;;;23.02;20.67;;;6.40;99.90;;;;;;5018318;28;20036;-81
2023/12/06 10:45:03;;;;;;;23.33;20.70;;;6.40;99.90;;;;;;5015539;28;20437;-78
2023/12/06 10:47:30;;;;;;;25.38;20.08;;;5.30;99.90;;;;;;5034874;28;20053;-80
2023/12/06 10:49:57;;;;;;;22.52;20.23;;;5.20;99.90;;;;;;5021741;28;20124;-80
2023/12/06 10:52:23;;;;;;;22.13;19.52;;;6.30;99.90;;;;;;5017624;28;20064;-76
2023/12/06 10:54:50;;;;;;;22.23;19.90;;;5.40;99.90;;;;;;5007288;28;20095;-76
2023/12/06 10:57:18;;;;;;;22.20;19.65;;;5.30;99.90;;;;;;5022266;28;20147;-77
2023/12/06 10:59:45;;;;;;;24.15;20.60;;;6.20;99.90;;;;;;5021751;28;20044;-79
2023/12/06 11:02:12;;;;;;;22.27;19.95;;;5.20;99.90;;;;;;5012096;28;20045;-77
2023/12/06 11:04:42;;;;;;;22.83;20.52;;;5.40;99.90;;;;;;5032624;28;20045;-78
2023/12/06 11:07:45;;;;;;;22.52;20.17;;;6.50;99.90;;;;;;5005041;28;20152;-77
2023/12/06 11:10:39;;;;;;;22.35;20.10;;;5.40;99.90;;;;;;5008096;28;20088;-80
2023/12/06 11:13:27;;;;;;;23.13;18.65;;;5.30;99.90;;;;;;5015916;28;20047;-79
2023/12/06 11:15:53;;;;;;;21.20;18.92;;;5.30;99.90;;;;;;5025992;28;20401;-76
2023/12/06 11:18:23;;;;;;;21.50;19.20;;;5.80;99.90;;;;;;5027128;28;20041;-83
2023/12/06 11:20:49;;;;;;;22.27;20.10;;;5.90;99.90;;;;;;5021150;28;20038;-78
2023/12/06 11:23:17;;;;;;;21.88;18.70;;;6.30;99.90;;;;;;5002982;28;20037;-78
2023/12/06 11:25:44;;;;;;;20.65;18.02;;;5.50;99.90;;;;;;5031890;28;20051;-78
2023/12/06 11:28:14;;;;;;;19.90;17.90;;;5.60;99.90;;;;;;5017048;28;20438;-76
2023/12/06 11:30:48;;;;;;;19.70;17.60;;;5.70;99.90;;;;;;5027054;28;20052;-76
2023/12/06 11:33:13;;;;;;;20.15;18.05;;;5.60;99.90;;;;;;5010992;28;20036;-78
2023/12/06 11:35:54;;;;;;;19.90;18.00;;;5.50;99.90;;;;;;5041230;28;20064;-81
2023/12/06 11:38:30;;;;;;;19.55;17.55;;;6.50;99.90;;;;;;5020685;28;20122;-78
2023/12/06 11:40:58;;;;;;;18.88;17.00;;;5.40;99.90;;;;;;5027548;28;20136;-80
2023/12/06 11:43:34;;;;;;;18.90;16.95;;;5.50;99.90;;;;;;5028805;28;20049;-75
2023/12/06 11:46:12;;;;;;;18.58;16.75;;;6.20;99.90;;;;;;5021516;28;20247;-80
2023/12/06 11:48:44;;;;;;;19.55;16.23;;;6.20;99.90;;;;;;5006083;28;20040;-78
2023/12/06 11:51:25;;;;;;;17.35;15.55;;;6.50;99.90;;;;;;5018677;28;20037;-79
2023/12/06 11:53:52;;;;;;;16.67;15.02;;;6.60;99.90;;;;;;5022178;28;20077;-77
2023/12/06 11:56:25;;;;;;;16.00;14.40;;;6.00;99.90;;;;;;5024230;28;20065;-77
2023/12/06 11:58:52;;;;;;;16.67;14.48;;;6.50;99.90;;;;;;5028387;28;20048;-83
2023/12/06 12:01:19;;;;;;;15.40;13.90;;;6.40;99.90;;;;;;5008585;28;20033;-80
2023/12/06 12:03:46;;;;;;;15.25;13.75;;;6.20;99.90;;;;;;5026334;28;20455;-82
2023/12/06 12:06:15;;;;;;;15.35;13.90;;;6.20;99.90;;;;;;4992239;28;20060;-80
2023/12/06 12:08:42;;;;;;;15.35;13.85;;;6.50;99.90;;;;;;5025962;28;20119;-81
2023/12/06 12:11:09;;;;;;;15.20;13.80;;;6.40;99.90;;;;;;5007387;28;20041;-79
2023/12/06 12:13:40;;;;;;;15.25;13.68;;;5.90;99.90;;;;;;5001391;28;20041;-78
2023/12/06 12:16:07;;;;;;;16.30;14.70;;;6.30;99.90;;;;;;5020677;28;20067;-81
2023/12/06 12:18:33;;;;;;;16.63;15.02;;;6.20;99.90;;;;;;5003724;28;20041;-80
2023/12/06 12:21:05;;;;;;;16.33;14.63;;;5.80;99.90;;;;;;5004989;28;20037;-77
2023/12/06 12:23:31;;;;;;;16.55;14.95;;;6.40;99.90;;;;;;5006387;28;20154;-77
2023/12/06 12:25:57;;;;;;;23.02;15.85;;;5.80;99.90;;;;;;5007495;28;20067;-78
2023/12/06 12:28:24;;;;;;;16.75;15.23;;;6.00;99.90;;;;;;5001809;28;20040;-76
2023/12/06 12:31:05;;;;;;;16.50;14.90;;;6.10;99.90;;;;;;5032267;28;20086;-78
2023/12/06 12:33:32;;;;;;;16.05;14.43;;;6.00;99.90;;;;;;5005896;28;20037;-79